Time;durP1;ratioP1;P1;durP2;ratioP2;P2;SDS_P1;SDS_P2;PMS_P1;PMS_P2;Temp;Humidity;BMP_temperature;BMP_pressure;BME280_temperature;BME280_humidity;BME280_pressure;Samples;Min_cycle;Max_cycle;Signal;HPM_P1;HPM_P2
2021/01/24 00:02:21;;;;;;;21.40;11.87;;;;;;;8.28;66.90;93313.03;5132264;28;20184;-74
2021/01/24 00:04:46;;;;;;;16.70;8.53;;;;;;;8.44;65.55;93294.97;5114134;28;20244;-73
2021/01/24 00:07:12;;;;;;;20.77;10.67;;;;;;;8.28;67.41;93289.09;5132190;28;20185;-76
2021/01/24 00:09:37;;;;;;;20.20;10.53;;;;;;;8.02;68.26;93300.66;5132623;28;20199;-77
2021/01/24 00:12:03;;;;;;;18.93;10.60;;;;;;;8.01;68.64;93293.06;5132001;28;20208;-74
2021/01/24 00:14:34;;;;;;;18.77;9.77;;;;;;;8.32;68.12;93289.16;5132150;28;20177;-74
2021/01/24 00:17:01;;;;;;;18.53;10.00;;;;;;;8.33;67.56;93290.66;5132333;28;20234;-74
2021/01/24 00:19:26;;;;;;;17.13;10.17;;;;;;;8.31;68.04;93301.69;5131957;28;20422;-77
2021/01/24 00:21:52;;;;;;;16.63;9.33;;;;;;;8.28;66.37;93317.59;5132239;28;20448;-74
2021/01/24 00:24:17;;;;;;;17.43;9.77;;;;;;;8.46;65.85;93302.56;5132065;28;20648;-75
2021/01/24 00:26:43;;;;;;;8.70;5.73;;;;;;;8.39;64.44;93297.97;5132122;28;20180;-74
2021/01/24 00:29:08;;;;;;;12.00;7.13;;;;;;;8.25;66.79;93315.66;5131838;28;20651;-74
2021/01/24 00:31:34;;;;;;;12.50;6.97;;;;;;;8.52;65.09;93305.63;5113252;28;20349;-73
2021/01/24 00:33:59;;;;;;;9.27;5.70;;;;;;;8.52;64.88;93310.97;5131843;28;20537;-74
2021/01/24 00:36:25;;;;;;;10.40;5.80;;;;;;;8.61;64.46;93317.50;5132059;28;20667;-73
2021/01/24 00:38:50;;;;;;;13.50;8.10;;;;;;;8.63;64.36;93315.22;5131641;28;20217;-74
2021/01/24 00:41:16;;;;;;;15.50;8.20;;;;;;;8.52;65.50;93308.28;5134259;27;20176;-74
2021/01/24 00:43:42;;;;;;;15.27;7.90;;;;;;;8.76;64.70;93320.25;5135821;27;20169;-73
2021/01/24 00:46:07;;;;;;;12.20;5.90;;;;;;;8.67;64.84;93326.66;5135627;27;20545;-73
2021/01/24 00:48:34;;;;;;;8.73;4.27;;;;;;;8.96;62.82;93308.94;5117433;27;20256;-73
2021/01/24 00:50:59;;;;;;;7.90;4.83;;;;;;;8.92;63.92;93318.03;5135584;27;20165;-74
2021/01/24 00:53:26;;;;;;;6.17;4.33;;;;;;;8.89;64.62;93321.47;5117338;27;20424;-73
2021/01/24 00:55:51;;;;;;;10.80;4.37;;;;;;;8.93;63.26;93316.94;5135508;27;20546;-74
2021/01/24 00:58:17;;;;;;;4.93;3.73;;;;;;;9.10;62.81;93323.50;5116936;27;20509;-74
2021/01/24 01:00:42;;;;;;;4.63;3.20;;;;;;;9.22;62.33;93317.84;5135310;27;20192;-73
2021/01/24 01:03:08;;;;;;;2.83;2.50;;;;;;;9.08;61.80;93323.84;5135534;27;20165;-73
2021/01/24 01:05:33;;;;;;;5.13;2.10;;;;;;;9.06;59.55;93328.03;5135285;27;20161;-74
2021/01/24 01:07:59;;;;;;;1.27;1.20;;;;;;;9.18;58.65;93320.47;5135009;27;20637;-74
2021/01/24 01:10:25;;;;;;;2.07;1.30;;;;;;;9.51;58.55;93318.72;5135383;27;20169;-74
2021/01/24 01:12:50;;;;;;;1.47;1.37;;;;;;;9.50;57.26;93307.28;5135268;27;20201;-74
2021/01/24 01:15:19;;;;;;;1.40;1.30;;;;;;;9.78;57.70;93273.84;5134876;27;20173;-74
2021/01/24 01:17:44;;;;;;;5.30;1.60;;;;;;;9.72;57.75;93304.69;5134913;27;20161;-74
2021/01/24 01:20:11;;;;;;;1.30;1.20;;;;;;;9.60;58.29;93307.72;5135300;27;20431;-74
2021/01/24 01:22:36;;;;;;;1.10;1.00;;;;;;;9.64;61.93;93295.91;5132473;27;20470;-74
2021/01/24 01:25:02;;;;;;;1.33;1.00;;;;;;;9.46;64.31;93319.81;5129104;27;20173;-74
2021/01/24 01:27:28;;;;;;;1.17;0.90;;;;;;;9.46;59.95;93289.75;5136502;27;20181;-74
2021/01/24 01:29:53;;;;;;;4.20;0.97;;;;;;;9.48;58.51;93298.13;5139367;27;20417;-74
2021/01/24 01:32:19;;;;;;;1.10;1.00;;;;;;;9.26;60.29;93298.06;5136700;27;20784;-74
2021/01/24 01:34:44;;;;;;;1.00;1.00;;;;;;;9.16;56.88;93247.44;5136321;27;20169;-74
2021/01/24 01:37:10;;;;;;;1.00;1.00;;;;;;;9.44;57.72;93284.06;5136579;27;20748;-74
2021/01/24 01:39:36;;;;;;;0.90;0.90;;;;;;;9.66;57.61;93290.97;5137501;27;20169;-74
2021/01/24 01:42:01;;;;;;;0.90;0.90;;;;;;;9.68;56.95;93293.25;5135764;27;20261;-75
2021/01/24 01:44:27;;;;;;;0.90;0.90;;;;;;;9.48;55.53;93288.25;5116247;27;20218;-74
2021/01/24 01:46:53;;;;;;;1.30;1.20;;;;;;;9.68;55.77;93285.25;5134696;27;20600;-74
2021/01/24 01:49:18;;;;;;;1.40;1.00;;;;;;;9.74;56.37;93287.16;5116214;27;20161;-75
2021/01/24 01:51:47;;;;;;;0.80;0.80;;;;;;;9.68;55.43;93304.66;5115992;27;20222;-74
2021/01/24 01:54:12;;;;;;;1.13;1.10;;;;;;;9.59;54.74;93300.84;5134035;27;20173;-74
2021/01/24 01:56:38;;;;;;;0.93;0.93;;;;;;;9.69;56.18;93287.53;5134627;27;20421;-74
2021/01/24 01:59:03;;;;;;;1.10;1.00;;;;;;;9.54;55.14;93304.66;5134420;27;20161;-75
2021/01/24 02:01:46;;;;;;;1.10;1.00;;;;;;;9.65;55.24;93286.00;5134240;27;20165;-75
2021/01/24 02:04:23;;;;;;;6.57;1.20;;;;;;;9.49;53.42;93281.03;5134468;27;20173;-74
2021/01/24 02:07:44;;;;;;;2.67;0.93;;;;;;;9.37;53.31;93297.34;5116072;27;20503;-74
2021/01/24 02:10:15;;;;;;;0.80;0.80;;;;;;;9.48;53.78;93298.91;5109433;27;20433;-74
2021/01/24 02:13:00;;;;;;;2.60;0.93;;;;;;;9.60;54.86;93292.47;5134000;27;20462;-74
2021/01/24 02:15:26;;;;;;;6.17;0.90;;;;;;;9.40;53.75;93292.03;5115815;27;20507;-74
2021/01/24 02:17:56;;;;;;;1.30;1.00;;;;;;;9.40;53.68;93297.34;5115586;27;20454;-74
2021/01/24 02:20:57;;;;;;;0.90;0.90;;;;;;;9.48;54.92;93293.59;5134115;27;20168;-75
2021/01/24 02:23:23;;;;;;;1.30;1.20;;;;;;;9.51;55.18;93302.72;5053882;28;21040;-75
2021/01/24 02:26:07;;;;;;;1.23;1.00;;;;;;;9.58;55.06;93294.75;5050784;28;20541;-75
2021/01/24 02:28:45;;;;;;;0.93;0.93;;;;;;;9.68;54.19;93295.91;5070482;28;20183;-75
2021/01/24 02:31:10;;;;;;;1.10;1.00;;;;;;;9.64;55.49;93292.47;5070401;28;20799;-75
2021/01/24 02:33:36;;;;;;;1.50;1.40;;;;;;;9.58;59.31;93301.97;5033884;28;20414;-74
2021/01/24 02:36:01;;;;;;;1.10;1.03;;;;;;;9.43;59.21;93263.88;5050274;28;20226;-74
2021/01/24 02:38:27;;;;;;;1.50;1.03;;;;;;;9.28;54.73;93271.81;5069870;28;20218;-75
2021/01/24 02:40:53;;;;;;;0.90;0.90;;;;;;;9.40;53.27;93268.06;5053729;28;20537;-75
2021/01/24 02:43:18;;;;;;;1.67;1.00;;;;;;;9.66;53.43;93280.31;5070280;28;20178;-75
2021/01/24 02:45:45;;;;;;;1.00;1.00;;;;;;;9.41;54.97;93263.47;5053755;28;20178;-75
2021/01/24 02:48:12;;;;;;;1.10;1.10;;;;;;;9.62;56.80;93300.84;5069961;28;20179;-74
2021/01/24 02:50:38;;;;;;;2.57;1.27;;;;;;;9.62;57.82;93295.53;5070318;28;20445;-74
2021/01/24 02:53:04;;;;;;;4.57;1.70;;;;;;;9.45;57.30;93301.56;5069722;28;20484;-75
2021/01/24 02:55:29;;;;;;;1.43;1.10;;;;;;;9.39;57.55;93287.84;5053754;28;20425;-75
2021/01/24 02:57:57;;;;;;;1.50;1.40;;;;;;;9.53;57.65;93295.09;5053235;28;20185;-75
2021/01/24 03:00:24;;;;;;;4.30;1.30;;;;;;;9.48;56.55;93276.81;5086572;28;20646;-75
2021/01/24 03:02:49;;;;;;;1.20;1.10;;;;;;;9.61;55.13;93282.59;5112548;28;20819;-75
2021/01/24 03:05:15;;;;;;;1.67;1.40;;;;;;;9.54;52.93;93294.75;5094489;28;20408;-75
2021/01/24 03:07:41;;;;;;;1.20;1.00;;;;;;;9.59;54.06;93268.84;5112711;28;20169;-75
2021/01/24 03:10:10;;;;;;;2.17;1.17;;;;;;;9.63;54.37;93264.31;5094778;28;20621;-75
2021/01/24 03:13:08;;;;;;;1.40;1.30;;;;;;;9.54;54.94;93268.09;5112527;28;20576;-75
2021/01/24 03:15:33;;;;;;;2.17;1.10;;;;;;;9.39;53.09;93274.53;5111399;28;20506;-74
2021/01/24 03:17:59;;;;;;;1.27;1.17;;;;;;;9.42;52.75;93279.09;5090539;28;20421;-75
2021/01/24 03:20:26;;;;;;;1.70;1.40;;;;;;;9.37;52.71;93270.69;5093339;28;20170;-74
2021/01/24 03:22:51;;;;;;;1.00;1.00;;;;;;;9.44;52.75;93273.41;5110973;28;20162;-75
2021/01/24 03:25:16;;;;;;;1.23;1.13;;;;;;;9.46;52.85;93287.09;5094009;28;20476;-75
2021/01/24 03:27:42;;;;;;;1.13;1.03;;;;;;;9.51;51.70;93278.75;5111209;28;20161;-74
2021/01/24 03:30:08;;;;;;;1.03;1.03;;;;;;;9.50;52.81;93277.97;5107538;28;20170;-75
2021/01/24 03:32:33;;;;;;;1.40;1.30;;;;;;;9.53;51.98;93271.13;5112083;28;20292;-74
2021/01/24 03:34:59;;;;;;;1.23;1.10;;;;;;;9.24;52.65;93275.59;5111932;28;20174;-74
2021/01/24 03:37:24;;;;;;;2.30;1.37;;;;;;;9.17;51.76;93283.56;5118659;27;20703;-74
2021/01/24 03:39:50;;;;;;;1.20;1.10;;;;;;;9.06;51.13;93286.19;5132398;27;20214;-74
2021/01/24 03:42:16;;;;;;;3.63;1.17;;;;;;;9.09;51.49;93290.00;5132470;27;20597;-74
2021/01/24 03:44:41;;;;;;;1.10;1.10;;;;;;;9.26;51.08;93287.44;5132277;27;20541;-74
2021/01/24 03:47:06;;;;;;;2.37;1.00;;;;;;;9.15;51.02;93294.59;5132455;27;20161;-74
2021/01/24 03:49:32;;;;;;;0.90;0.90;;;;;;;9.03;50.03;93268.28;5132525;27;20157;-73
2021/01/24 03:51:57;;;;;;;0.90;0.90;;;;;;;8.91;50.31;93292.56;5132163;27;20196;-74
2021/01/24 03:54:23;;;;;;;0.90;0.90;;;;;;;9.00;51.00;93293.00;5132452;27;20599;-74
2021/01/24 03:56:48;;;;;;;1.67;1.07;;;;;;;9.02;50.82;93288.06;5132072;28;20202;-74
2021/01/24 03:59:14;;;;;;;2.47;1.47;;;;;;;8.96;51.33;93302.88;5132416;28;20196;-74
2021/01/24 04:01:39;;;;;;;1.20;1.07;;;;;;;8.98;51.28;93301.38;5132353;28;20644;-74
2021/01/24 04:04:05;;;;;;;0.90;0.90;;;;;;;9.14;50.97;93306.38;5132287;28;20218;-74
2021/01/24 04:06:30;;;;;;;0.90;0.90;;;;;;;8.77;50.77;93274.63;5132184;28;20237;-74
2021/01/24 04:08:56;;;;;;;2.00;0.97;;;;;;;9.00;50.50;93307.09;5132245;28;20272;-74
2021/01/24 04:11:22;;;;;;;1.37;0.77;;;;;;;8.74;49.80;93318.72;5132016;28;20634;-74
2021/01/24 04:13:47;;;;;;;1.57;1.30;;;;;;;8.84;50.86;93306.59;5132123;28;20605;-74
2021/01/24 04:16:13;;;;;;;1.40;1.30;;;;;;;8.94;50.61;93308.56;5134543;27;20201;-74
2021/01/24 04:18:38;;;;;;;2.23;1.13;;;;;;;9.13;50.35;93309.41;5136084;27;20172;-74
2021/01/24 04:21:04;;;;;;;5.93;1.13;;;;;;;9.05;50.50;93271.34;5136502;27;20278;-75
2021/01/24 04:23:29;;;;;;;1.30;1.10;;;;;;;9.15;50.96;93317.81;5136235;27;20255;-74
2021/01/24 04:25:56;;;;;;;1.40;1.30;;;;;;;8.88;52.21;93319.94;5136364;27;20200;-75
2021/01/24 04:28:21;;;;;;;1.30;1.10;;;;;;;8.75;52.46;93308.81;5136056;27;20168;-74
2021/01/24 04:30:47;;;;;;;1.37;1.10;;;;;;;8.91;52.26;93335.16;5136156;27;20414;-75
2021/01/24 04:33:12;;;;;;;4.90;2.40;;;;;;;8.86;51.83;93330.19;5135983;27;20684;-75
2021/01/24 04:35:37;;;;;;;1.60;1.50;;;;;;;8.85;51.44;93326.00;5136144;27;20238;-75
2021/01/24 04:38:03;;;;;;;1.77;1.40;;;;;;;8.55;52.35;93297.69;5135935;27;20201;-74
2021/01/24 04:40:29;;;;;;;1.37;1.27;;;;;;;8.91;52.59;93335.16;5135934;27;20207;-75
2021/01/24 04:42:54;;;;;;;1.60;1.50;;;;;;;8.97;52.14;93318.47;5136038;27;20168;-75
2021/01/24 04:45:20;;;;;;;2.40;1.70;;;;;;;8.98;52.71;93327.22;5134506;27;20215;-75
2021/01/24 04:47:46;;;;;;;2.67;2.23;;;;;;;9.00;53.75;93330.28;5136027;27;20169;-75
2021/01/24 04:50:12;;;;;;;2.33;2.13;;;;;;;9.05;53.55;93329.16;5135551;27;20760;-74
2021/01/24 04:52:37;;;;;;;4.33;1.90;;;;;;;8.94;53.97;93313.91;5135834;27;20254;-75
2021/01/24 04:55:03;;;;;;;3.63;2.10;;;;;;;8.69;55.63;93326.28;5135505;27;20169;-76
2021/01/24 04:57:29;;;;;;;3.30;2.07;;;;;;;8.79;55.15;93330.91;5135848;27;20220;-74
2021/01/24 04:59:55;;;;;;;3.97;2.03;;;;;;;8.72;55.34;93320.22;5135308;27;20177;-74
2021/01/24 05:02:20;;;;;;;5.00;3.13;;;;;;;8.36;56.34;93330.63;5135534;27;20181;-74
2021/01/24 05:04:46;;;;;;;7.87;4.27;;;;;;;8.35;56.70;93337.03;5117237;27;20169;-74
2021/01/24 05:07:12;;;;;;;4.43;2.70;;;;;;;8.47;56.28;93309.41;5135207;27;20169;-74
2021/01/24 05:09:40;;;;;;;3.70;2.37;;;;;;;8.09;56.24;93321.25;5116933;27;20177;-74
2021/01/24 05:12:07;;;;;;;2.33;1.60;;;;;;;8.01;56.18;93343.56;5135102;27;20489;-74
2021/01/24 05:14:32;;;;;;;3.10;1.77;;;;;;;8.06;56.08;93349.31;5133947;27;20411;-74
2021/01/24 05:16:58;;;;;;;2.23;1.50;;;;;;;8.00;55.61;93328.75;5135236;27;20479;-74
2021/01/24 05:19:23;;;;;;;3.50;2.23;;;;;;;8.12;56.08;93342.53;5134105;27;20173;-75
2021/01/24 05:21:50;;;;;;;2.60;1.70;;;;;;;8.15;55.19;93349.78;5135009;27;20176;-74
2021/01/24 05:24:17;;;;;;;2.40;1.67;;;;;;;8.20;54.89;93346.03;5135149;27;20172;-74
2021/01/24 05:26:46;;;;;;;1.60;1.50;;;;;;;8.17;52.87;93334.22;5134131;27;20802;-75
2021/01/24 05:29:26;;;;;;;4.20;1.63;;;;;;;8.25;52.81;93350.22;5134497;27;20463;-74
2021/01/24 05:31:53;;;;;;;1.20;1.03;;;;;;;8.06;51.65;93306.78;5134639;27;20472;-75
2021/01/24 05:34:25;;;;;;;1.47;1.23;;;;;;;8.24;51.41;93349.47;5135109;27;20418;-74
2021/01/24 05:36:51;;;;;;;5.43;1.30;;;;;;;8.23;52.20;93364.66;5134454;27;20989;-73
2021/01/24 05:39:17;;;;;;;1.80;1.70;;;;;;;8.32;51.42;93350.31;5134863;27;20517;-74
2021/01/24 05:41:49;;;;;;;0.97;0.97;;;;;;;8.25;50.42;93335.06;5134513;27;20168;-74
2021/01/24 05:44:15;;;;;;;1.53;1.10;;;;;;;8.53;50.12;93349.72;5134649;27;20228;-75
2021/01/24 05:46:41;;;;;;;5.07;1.40;;;;;;;8.29;52.72;93351.78;5139464;27;20411;-74
2021/01/24 05:49:07;;;;;;;2.17;1.50;;;;;;;8.41;51.74;93354.19;5098406;27;20417;-74
2021/01/24 05:51:33;;;;;;;2.57;1.40;;;;;;;8.57;50.72;93369.91;5138976;27;20672;-73
2021/01/24 05:53:58;;;;;;;3.83;1.90;;;;;;;8.71;50.40;93369.25;5117518;27;20431;-73
2021/01/24 05:56:24;;;;;;;7.70;1.37;;;;;;;8.84;49.77;93375.81;5134588;27;20248;-74
2021/01/24 05:58:59;;;;;;;3.43;2.00;;;;;;;8.88;51.18;93367.84;5136282;27;20199;-73
2021/01/24 06:01:26;;;;;;;3.57;1.70;;;;;;;8.63;51.89;93365.78;5133001;27;20210;-74
2021/01/24 06:03:53;;;;;;;4.73;2.43;;;;;;;8.79;51.29;93362.84;5152791;27;20425;-73
2021/01/24 06:06:18;;;;;;;3.70;2.33;;;;;;;8.70;51.35;93363.19;5155113;27;20414;-74
2021/01/24 06:08:44;;;;;;;2.47;1.80;;;;;;;8.76;52.68;93378.81;5154894;27;20420;-74
2021/01/24 06:11:10;;;;;;;2.30;1.73;;;;;;;8.83;52.11;93405.47;5154843;27;20160;-82
2021/01/24 06:13:37;;;;;;;1.73;1.63;;;;;;;8.66;52.79;93390.91;5136727;27;20184;-75
2021/01/24 06:16:13;;;;;;;1.40;1.30;;;;;;;8.43;53.03;93393.75;5154045;27;20413;-77
2021/01/24 06:19:03;;;;;;;2.83;2.00;;;;;;;8.46;52.84;93419.59;5135730;27;20429;-77
2021/01/24 06:21:50;;;;;;;2.60;2.23;;;;;;;8.47;53.72;93429.09;5154822;27;20454;-77
2021/01/24 06:24:35;;;;;;;2.93;2.20;;;;;;;8.30;53.72;93395.88;5154594;27;20797;-76
2021/01/24 06:27:01;;;;;;;3.90;2.30;;;;;;;8.20;54.02;93386.69;5136098;27;20851;-76
2021/01/24 06:29:26;;;;;;;3.43;2.50;;;;;;;8.42;54.46;93430.22;5152879;27;20505;-76
2021/01/24 06:31:53;;;;;;;3.67;2.47;;;;;;;8.50;54.52;93430.28;5136147;27;21028;-77
2021/01/24 06:34:38;;;;;;;5.37;2.50;;;;;;;8.46;54.61;93406.28;5154173;27;20213;-77
2021/01/24 06:37:08;;;;;;;3.10;1.93;;;;;;;8.35;54.57;93402.75;5154036;27;20450;-77
2021/01/24 06:39:50;;;;;;;2.37;1.90;;;;;;;8.40;55.02;93442.34;5154030;27;20921;-76
2021/01/24 06:42:37;;;;;;;5.60;2.63;;;;;;;8.55;54.53;93448.56;5153246;27;20405;-77
2021/01/24 06:45:26;;;;;;;5.10;2.67;;;;;;;8.62;54.28;93453.94;5118924;27;20442;-76
2021/01/24 06:47:52;;;;;;;5.67;2.33;;;;;;;8.46;54.80;93446.19;5132606;27;20430;-76
2021/01/24 06:50:35;;;;;;;3.97;2.20;;;;;;;8.65;54.54;93454.00;5153073;27;20463;-77
2021/01/24 06:53:21;;;;;;;4.20;2.60;;;;;;;8.56;54.69;93466.81;5154396;27;20549;-77
2021/01/24 06:55:55;;;;;;;5.70;3.10;;;;;;;8.57;54.85;93460.38;5153937;27;20425;-77
2021/01/24 06:58:30;;;;;;;3.63;2.77;;;;;;;8.18;56.16;93470.59;5154583;27;20492;-77
2021/01/24 07:01:20;;;;;;;3.33;2.20;;;;;;;8.45;55.30;93466.72;5155090;27;20792;-76
2021/01/24 07:03:46;;;;;;;2.50;2.23;;;;;;;8.58;55.08;93471.78;5156237;27;20519;-75
2021/01/24 07:06:31;;;;;;;3.73;2.20;;;;;;;8.54;54.53;93486.94;5135712;27;20949;-76
2021/01/24 07:08:57;;;;;;;4.40;2.50;;;;;;;8.25;54.96;93459.25;5153852;27;20225;-76
2021/01/24 07:11:55;;;;;;;6.70;2.73;;;;;;;8.66;55.42;93481.38;5152009;27;20834;-75
2021/01/24 07:14:41;;;;;;;5.70;2.50;;;;;;;8.53;55.70;93472.88;5089387;28;20265;-77
2021/01/24 07:17:07;;;;;;;5.73;2.47;;;;;;;8.67;55.04;93480.22;5062476;28;20444;-76
2021/01/24 07:19:50;;;;;;;4.57;2.50;;;;;;;8.68;54.11;93484.41;5089936;28;20821;-74
2021/01/24 07:22:22;;;;;;;5.87;2.20;;;;;;;8.72;54.12;93478.00;5089690;28;20228;-77
2021/01/24 07:24:48;;;;;;;2.03;1.80;;;;;;;8.56;54.13;93434.91;5089770;28;20936;-77
2021/01/24 07:27:18;;;;;;;6.10;2.50;;;;;;;9.02;53.84;93479.75;5089690;28;20514;-75
2021/01/24 07:29:45;;;;;;;4.00;2.27;;;;;;;8.88;53.43;93461.03;5085076;28;20426;-75
2021/01/24 07:32:15;;;;;;;3.90;2.70;;;;;;;8.90;54.34;93475.47;5077975;28;20463;-75
2021/01/24 07:34:42;;;;;;;3.47;2.37;;;;;;;8.80;53.70;93481.47;5074808;28;20431;-75
2021/01/24 07:37:07;;;;;;;6.00;2.80;;;;;;;9.09;52.94;93482.50;5072915;28;20643;-75
2021/01/24 07:39:33;;;;;;;6.23;3.07;;;;;;;9.27;52.48;93486.03;5032053;28;20962;-75
2021/01/24 07:42:00;;;;;;;3.47;2.20;;;;;;;9.11;51.59;93453.59;5049222;28;20219;-75
2021/01/24 07:44:25;;;;;;;3.73;2.07;;;;;;;9.34;52.07;93488.00;5049090;28;20184;-75
2021/01/24 07:46:51;;;;;;;5.90;2.70;;;;;;;9.49;51.77;93484.28;5049322;28;20488;-76
2021/01/24 07:49:17;;;;;;;2.37;1.97;;;;;;;9.48;51.08;93476.63;5048969;28;20215;-75
2021/01/24 07:51:43;;;;;;;4.57;2.47;;;;;;;9.25;53.71;93485.63;5107486;28;20198;-76
2021/01/24 07:54:09;;;;;;;7.57;2.17;;;;;;;9.13;53.53;93475.28;5111559;28;20492;-75
2021/01/24 07:56:35;;;;;;;3.70;1.63;;;;;;;9.34;51.37;93471.25;5111798;28;20691;-75
2021/01/24 07:59:00;;;;;;;2.17;1.93;;;;;;;9.63;51.16;93507.56;5111770;28;20166;-76
2021/01/24 08:01:26;;;;;;;4.33;1.70;;;;;;;9.67;51.57;93505.72;5112028;28;20927;-75
2021/01/24 08:03:52;;;;;;;5.73;2.27;;;;;;;9.68;51.57;93511.78;5112135;28;20178;-76
2021/01/24 08:06:17;;;;;;;4.10;2.13;;;;;;;9.49;51.94;93478.19;5111556;28;20193;-75
2021/01/24 08:08:45;;;;;;;6.83;2.27;;;;;;;9.91;50.53;93530.97;5111902;28;20169;-75
2021/01/24 08:11:10;;;;;;;4.50;2.33;;;;;;;9.70;51.78;93525.50;5111313;28;20162;-75
2021/01/24 08:13:36;;;;;;;6.07;2.40;;;;;;;9.61;52.62;93533.09;5111717;28;20989;-75
2021/01/24 08:16:08;;;;;;;5.40;2.63;;;;;;;9.83;52.45;93523.31;5111591;28;20648;-76
2021/01/24 08:18:33;;;;;;;4.80;2.63;;;;;;;9.89;52.51;93527.91;5110425;28;20174;-75
2021/01/24 08:20:59;;;;;;;11.03;3.47;;;;;;;9.83;52.24;93529.41;5093325;28;20430;-75
2021/01/24 08:23:25;;;;;;;9.83;3.67;;;;;;;9.74;53.69;93544.97;5111736;28;20186;-81
2021/01/24 08:25:53;;;;;;;4.87;3.40;;;;;;;9.87;53.19;93540.84;5110268;28;20170;-76
2021/01/24 08:28:20;;;;;;;5.13;2.63;;;;;;;9.83;52.36;93548.06;5110486;28;20217;-76
2021/01/24 08:30:46;;;;;;;11.70;3.00;;;;;;;9.94;53.29;93537.47;5093151;28;21047;-75
2021/01/24 08:33:12;;;;;;;4.37;2.57;;;;;;;10.09;52.77;93507.03;5111314;28;20466;-76
2021/01/24 08:35:38;;;;;;;8.90;3.43;;;;;;;10.10;52.40;93521.13;5111567;28;20178;-76
2021/01/24 08:38:04;;;;;;;5.53;2.20;;;;;;;10.07;52.38;93530.66;5123041;28;20972;-75
2021/01/24 08:40:38;;;;;;;5.37;2.60;;;;;;;9.98;51.69;93525.66;5131992;28;20173;-76
2021/01/24 08:43:04;;;;;;;5.70;2.40;;;;;;;10.12;52.44;93540.22;5131704;28;20176;-75
2021/01/24 08:45:30;;;;;;;9.33;3.50;;;;;;;10.06;53.71;93539.81;5131084;28;20436;-75
2021/01/24 08:47:57;;;;;;;8.03;2.80;;;;;;;9.97;53.20;93539.38;5131428;28;20207;-75
2021/01/24 08:50:23;;;;;;;3.67;1.67;;;;;;;10.02;47.20;93539.03;5130746;28;20224;-75
2021/01/24 08:52:55;;;;;;;1.23;1.13;;;;;;;9.81;47.28;93542.31;5113308;28;20993;-77
2021/01/24 08:55:21;;;;;;;3.20;1.53;;;;;;;9.95;44.30;93515.00;5131854;28;20181;-76
2021/01/24 08:57:47;;;;;;;1.80;1.57;;;;;;;10.05;44.65;93512.38;5131916;28;20476;-75
2021/01/24 09:00:13;;;;;;;2.57;1.93;;;;;;;10.25;47.09;93528.88;5113408;28;20226;-76
2021/01/24 09:02:39;;;;;;;4.17;2.50;;;;;;;10.50;46.65;93531.63;5115518;27;20533;-76
2021/01/24 09:05:08;;;;;;;4.47;1.90;;;;;;;10.86;46.25;93543.16;5135367;27;20910;-76
2021/01/24 09:07:43;;;;;;;6.03;1.83;;;;;;;11.07;45.96;93545.09;5135374;27;20423;-76
2021/01/24 09:10:24;;;;;;;9.20;2.13;;;;;;;11.28;44.62;93549.69;5135361;27;20559;-76
2021/01/24 09:12:55;;;;;;;5.03;1.93;;;;;;;11.55;45.87;93560.00;5135162;27;20457;-77
2021/01/24 09:15:21;;;;;;;5.90;2.33;;;;;;;11.51;45.25;93577.97;5135359;27;20410;-76
2021/01/24 09:17:47;;;;;;;3.90;1.60;;;;;;;11.82;44.20;93582.53;5135107;27;20415;-78
2021/01/24 09:20:13;;;;;;;4.63;1.87;;;;;;;11.63;43.66;93550.84;5135281;27;20878;-77
2021/01/24 09:22:39;;;;;;;5.50;1.93;;;;;;;12.06;44.45;93574.84;5116669;27;20422;-77
2021/01/24 09:25:05;;;;;;;8.00;2.20;;;;;;;12.23;43.65;93555.31;5135199;27;20173;-77
2021/01/24 09:27:30;;;;;;;4.90;1.87;;;;;;;12.36;43.09;93561.03;5135279;27;20667;-77
2021/01/24 09:29:56;;;;;;;3.23;1.60;;;;;;;12.25;43.25;93533.53;5134948;27;20201;-77
2021/01/24 09:32:21;;;;;;;5.03;2.37;;;;;;;12.63;43.04;93564.75;5135085;27;20280;-77
2021/01/24 09:34:47;;;;;;;3.93;2.60;;;;;;;12.72;42.44;93556.28;5134626;27;20176;-76
2021/01/24 09:37:12;;;;;;;4.87;2.00;;;;;;;12.72;42.37;93567.00;5134706;27;20213;-77
2021/01/24 09:39:38;;;;;;;3.43;1.80;;;;;;;12.90;40.90;93538.19;5134770;27;20203;-76
2021/01/24 09:42:04;;;;;;;1.47;1.23;;;;;;;13.07;38.22;93530.44;5134748;27;20600;-76
2021/01/24 09:44:29;;;;;;;2.90;1.20;;;;;;;12.67;38.71;93495.84;5134558;27;20165;-75
2021/01/24 09:46:55;;;;;;;2.67;1.33;;;;;;;12.92;40.06;93533.22;5135286;27;20192;-76
2021/01/24 09:49:20;;;;;;;3.23;2.20;;;;;;;13.08;38.89;93540.78;5134679;27;20172;-77
2021/01/24 09:51:46;;;;;;;5.10;2.00;;;;;;;13.12;40.09;93521.97;5134150;27;20204;-76
2021/01/24 09:54:14;;;;;;;3.53;1.67;;;;;;;13.41;38.33;93526.03;5134674;27;20602;-77
2021/01/24 09:56:40;;;;;;;3.07;1.47;;;;;;;13.49;38.26;93481.88;5134295;27;20173;-76
2021/01/24 09:59:05;;;;;;;6.23;1.50;;;;;;;13.85;37.68;93512.97;5134511;27;20468;-76
2021/01/24 10:01:31;;;;;;;4.57;2.00;;;;;;;13.96;37.55;93498.28;5134162;27;20226;-75
2021/01/24 10:03:56;;;;;;;1.33;1.23;;;;;;;14.06;36.69;93474.41;5134313;27;20172;-76
2021/01/24 10:06:22;;;;;;;3.87;1.37;;;;;;;14.07;36.75;93498.16;5133996;27;20176;-76
2021/01/24 10:08:48;;;;;;;2.53;1.70;;;;;;;13.77;37.98;93496.94;5134261;27;20177;-76
2021/01/24 10:11:13;;;;;;;3.73;2.13;;;;;;;13.94;37.06;93508.66;5114826;27;20216;-76
2021/01/24 10:13:39;;;;;;;2.53;1.23;;;;;;;13.60;34.53;93494.44;5133502;27;20653;-76
2021/01/24 10:16:05;;;;;;;3.23;1.33;;;;;;;13.70;35.80;93472.88;5134225;27;20663;-76
2021/01/24 10:18:30;;;;;;;5.07;1.30;;;;;;;14.09;34.54;93487.81;5133726;27;20170;-76
2021/01/24 10:20:56;;;;;;;2.73;1.77;;;;;;;14.23;34.71;93468.84;5134129;27;20173;-76
2021/01/24 10:23:22;;;;;;;4.37;1.87;;;;;;;14.18;36.84;93457.78;5115380;27;20717;-77
2021/01/24 10:25:56;;;;;;;3.17;2.00;;;;;;;14.43;37.45;93489.72;5133920;27;20234;-76
2021/01/24 10:28:23;;;;;;;10.33;2.97;;;;;;;14.20;37.68;93463.53;5133893;27;20183;-76
2021/01/24 10:30:49;;;;;;;5.80;2.20;;;;;;;14.73;36.74;93483.59;5134745;27;20933;-77
2021/01/24 10:33:15;;;;;;;4.83;2.00;;;;;;;15.06;36.55;93481.97;5134184;27;20465;-75
2021/01/24 10:35:40;;;;;;;8.20;1.90;;;;;;;15.34;35.07;93494.22;5115565;27;20234;-76
2021/01/24 10:38:06;;;;;;;6.77;1.90;;;;;;;15.08;33.97;93468.88;5133276;27;20225;-77
2021/01/24 10:40:32;;;;;;;6.00;1.87;;;;;;;14.90;35.26;93471.06;5115370;27;20169;-76
2021/01/24 10:42:57;;;;;;;5.07;2.10;;;;;;;14.78;35.66;93454.34;5133354;27;20165;-76
2021/01/24 10:45:23;;;;;;;3.33;1.77;;;;;;;14.74;35.92;93474.34;5133664;27;20289;-78
2021/01/24 10:47:49;;;;;;;7.03;1.80;;;;;;;15.04;34.86;93484.31;5133779;27;20165;-75
2021/01/24 10:50:15;;;;;;;5.30;1.97;;;;;;;15.04;34.50;93477.00;5133500;27;20173;-78
2021/01/24 10:52:40;;;;;;;2.33;1.70;;;;;;;15.05;34.50;93456.25;5133522;27;20205;-78
2021/01/24 10:55:06;;;;;;;2.90;1.80;;;;;;;15.50;34.30;93478.19;5133250;27;20183;-78
2021/01/24 10:57:32;;;;;;;3.23;1.70;;;;;;;15.05;33.81;93456.25;5115151;27;20177;-76
2021/01/24 10:59:58;;;;;;;1.73;0.80;;;;;;;15.12;30.77;93474.19;5133187;27;20476;-77
2021/01/24 11:02:23;;;;;;;2.43;1.47;;;;;;;14.39;33.18;93454.84;5133139;27;20176;-78
2021/01/24 11:04:50;;;;;;;2.60;1.40;;;;;;;14.59;33.61;93457.69;5133180;27;20173;-79
2021/01/24 11:07:15;;;;;;;3.30;1.43;;;;;;;14.56;33.13;93461.16;5133081;27;20415;-76
2021/01/24 11:09:41;;;;;;;1.60;1.10;;;;;;;14.26;33.72;93410.91;5133042;27;20202;-76
2021/01/24 11:12:06;;;;;;;1.53;1.27;;;;;;;14.60;33.30;93453.06;5132962;27;20282;-75
2021/01/24 11:14:32;;;;;;;2.90;1.30;;;;;;;14.52;33.51;93447.78;5132996;27;20177;-75
2021/01/24 11:16:58;;;;;;;4.10;1.40;;;;;;;14.44;33.71;93461.69;5132832;27;20177;-75
2021/01/24 11:19:23;;;;;;;3.87;1.47;;;;;;;13.77;34.41;93413.78;5132759;27;20200;-75
2021/01/24 11:21:49;;;;;;;2.17;1.13;;;;;;;13.66;35.00;93442.66;5132688;27;20256;-75
2021/01/24 11:24:14;;;;;;;3.17;1.40;;;;;;;13.52;35.67;93444.69;5132657;27;20171;-75
2021/01/24 11:26:40;;;;;;;7.67;1.60;;;;;;;13.50;36.09;93445.84;5132132;27;20218;-76
2021/01/24 11:29:05;;;;;;;4.93;1.23;;;;;;;13.68;35.11;93447.59;5114673;27;20184;-76
2021/01/24 11:31:31;;;;;;;1.93;1.43;;;;;;;13.69;34.53;93439.19;5132605;27;20168;-77
2021/01/24 11:33:58;;;;;;;4.27;1.50;;;;;;;13.45;35.09;93448.22;5132866;27;20212;-76
2021/01/24 11:36:23;;;;;;;1.03;1.03;;;;;;;13.31;35.60;93459.84;5132817;27;20411;-77
2021/01/24 11:38:49;;;;;;;4.20;1.10;;;;;;;13.26;35.39;93425.41;5113889;27;21056;-77
2021/01/24 11:41:16;;;;;;;1.10;1.00;;;;;;;13.08;35.88;93438.94;5112215;28;20165;-76
2021/01/24 11:43:41;;;;;;;1.10;1.00;;;;;;;13.07;35.58;93442.00;5093788;28;20579;-74